Time;durP1;ratioP1;P1;durP2;ratioP2;P2;SDS_P1;SDS_P2;PMS_P1;PMS_P2;Temp;Humidity;BMP_temperature;BMP_pressure;BME280_temperature;BME280_humidity;BME280_pressure;Samples;Min_cycle;Max_cycle;Signal;HPM_P1;HPM_P2
2023/04/21 00:00:44;;;;;;;26.50;12.52;;;3.40;99.90;;;;;;2072080;28;20280;-67
2023/04/21 00:01:46;;;;;;;20.40;11.40;;;3.50;99.90;;;;;;2071575;28;20225;-67
2023/04/21 00:02:50;;;;;;;22.05;10.93;;;3.50;99.90;;;;;;2055531;28;20230;-66
2023/04/21 00:03:50;;;;;;;22.42;11.98;;;3.40;99.90;;;;;;2064063;28;20708;-66
2023/04/21 00:04:51;;;;;;;24.80;12.33;;;3.40;99.90;;;;;;2062749;28;20284;-68
2023/04/21 00:05:55;;;;;;;23.60;12.37;;;3.40;99.90;;;;;;2063210;28;20773;-67
2023/04/21 00:06:56;;;;;;;22.38;11.95;;;3.40;99.90;;;;;;2063413;28;20485;-67
2023/04/21 00:07:56;;;;;;;17.40;10.35;;;3.40;99.90;;;;;;2071264;28;20228;-67
2023/04/21 00:08:57;;;;;;;18.63;10.20;;;3.40;99.90;;;;;;2070101;28;20647;-67
2023/04/21 00:09:58;;;;;;;19.23;10.60;;;3.50;99.90;;;;;;2066969;28;20244;-67
2023/04/21 00:10:59;;;;;;;19.13;11.07;;;3.50;99.90;;;;;;2069402;28;20703;-67
2023/04/21 00:12:00;;;;;;;17.00;9.90;;;3.50;99.90;;;;;;2063457;28;20289;-67
2023/04/21 00:13:01;;;;;;;17.15;9.80;;;3.50;99.90;;;;;;2054320;28;20229;-69
2023/04/21 00:14:01;;;;;;;20.57;10.67;;;3.60;99.90;;;;;;2059941;28;20750;-68
2023/04/21 00:15:03;;;;;;;18.90;10.27;;;3.60;99.90;;;;;;2061779;28;20236;-67
2023/04/21 00:16:06;;;;;;;18.40;10.20;;;3.60;99.90;;;;;;2059952;28;20190;-67
2023/04/21 00:17:07;;;;;;;17.77;10.27;;;3.60;99.90;;;;;;2071091;28;20185;-67
2023/04/21 00:18:08;;;;;;;18.33;10.97;;;3.60;99.90;;;;;;2071243;28;20185;-67
2023/04/21 00:19:09;;;;;;;18.77;10.68;;;3.70;99.90;;;;;;2054779;28;20219;-67
2023/04/21 00:20:10;;;;;;;15.80;8.57;;;3.60;99.90;;;;;;2049892;28;20217;-67
2023/04/21 00:21:12;;;;;;;18.02;9.90;;;3.70;99.90;;;;;;2052385;28;20252;-69
2023/04/21 00:22:13;;;;;;;17.45;9.80;;;3.70;99.90;;;;;;2063711;28;20194;-67
2023/04/21 00:23:14;;;;;;;17.52;9.80;;;3.70;99.90;;;;;;2063403;28;20189;-67
2023/04/21 00:24:15;;;;;;;16.43;8.97;;;3.70;99.90;;;;;;2057042;28;20229;-66
2023/04/21 00:25:15;;;;;;;17.43;9.47;;;3.60;99.90;;;;;;2063128;28;20237;-67
2023/04/21 00:26:17;;;;;;;18.53;9.77;;;3.60;99.90;;;;;;2054895;28;20195;-66
2023/04/21 00:27:17;;;;;;;18.98;9.90;;;3.50;99.90;;;;;;2062997;28;20225;-67
2023/04/21 00:28:18;;;;;;;14.87;9.37;;;3.50;99.90;;;;;;2071624;28;20196;-67
2023/04/21 00:29:19;;;;;;;17.90;9.27;;;3.50;99.90;;;;;;2071018;28;20645;-67
2023/04/21 00:30:20;;;;;;;17.93;9.40;;;3.60;99.90;;;;;;2062793;28;20599;-67
2023/04/21 00:31:20;;;;;;;15.73;9.40;;;3.60;99.90;;;;;;2071313;28;20248;-67
2023/04/21 00:32:21;;;;;;;16.37;9.33;;;3.50;99.90;;;;;;2072287;28;20561;-67
2023/04/21 00:33:22;;;;;;;14.77;9.23;;;3.50;99.90;;;;;;2071924;28;20236;-67
2023/04/21 00:34:22;;;;;;;19.73;10.13;;;3.40;99.90;;;;;;2071946;28;20785;-66
2023/04/21 00:35:23;;;;;;;19.23;10.10;;;3.40;99.90;;;;;;2071875;28;20247;-66
2023/04/21 00:36:26;;;;;;;20.50;11.00;;;3.30;99.90;;;;;;2071531;28;20221;-67
2023/04/21 00:37:27;;;;;;;16.63;10.05;;;3.30;99.90;;;;;;2070925;28;20237;-67
2023/04/21 00:38:29;;;;;;;21.90;10.63;;;3.30;99.90;;;;;;2063422;28;20282;-66
2023/04/21 00:39:30;;;;;;;18.33;10.65;;;3.30;99.90;;;;;;2067349;28;20781;-67
2023/04/21 00:40:30;;;;;;;20.70;10.13;;;3.30;99.90;;;;;;2075457;28;20295;-67
2023/04/21 00:41:34;;;;;;;17.20;9.60;;;3.40;99.90;;;;;;2070931;28;20260;-67
2023/04/21 00:42:34;;;;;;;18.90;10.35;;;3.50;99.90;;;;;;2068151;28;20250;-66
2023/04/21 00:43:35;;;;;;;18.00;10.00;;;3.60;99.90;;;;;;2070573;28;20725;-67
2023/04/21 00:44:36;;;;;;;20.50;10.27;;;3.50;99.90;;;;;;2063058;28;20233;-66
2023/04/21 00:45:36;;;;;;;18.30;9.73;;;3.50;99.90;;;;;;2071003;28;20703;-67
2023/04/21 00:46:38;;;;;;;16.33;9.40;;;3.50;99.90;;;;;;2070059;28;20240;-67
2023/04/21 00:47:39;;;;;;;17.52;9.57;;;3.50;99.90;;;;;;2071617;28;20650;-67
2023/04/21 00:48:41;;;;;;;14.53;8.90;;;3.50;99.90;;;;;;2071124;28;20303;-67
2023/04/21 00:49:41;;;;;;;16.00;9.38;;;3.50;99.90;;;;;;2071645;28;20700;-67
2023/04/21 00:50:45;;;;;;;14.50;9.13;;;3.50;99.90;;;;;;2062774;28;20230;-67
2023/04/21 00:51:47;;;;;;;14.38;8.63;;;3.40;99.90;;;;;;2063382;28;20324;-67
2023/04/21 00:52:48;;;;;;;17.27;9.02;;;3.30;99.90;;;;;;2054569;28;20573;-68
2023/04/21 00:53:50;;;;;;;17.23;9.68;;;3.30;99.90;;;;;;2054926;28;20234;-66
2023/04/21 00:54:52;;;;;;;14.48;7.93;;;3.20;99.90;;;;;;2062876;28;20860;-67
2023/04/21 00:55:52;;;;;;;15.57;9.10;;;3.10;99.90;;;;;;2059223;28;20291;-66
2023/04/21 00:56:57;;;;;;;16.50;8.77;;;3.10;99.90;;;;;;2070845;28;20707;-66
2023/04/21 00:57:59;;;;;;;16.08;8.48;;;3.10;99.90;;;;;;2070325;28;20229;-69
2023/04/21 00:59:01;;;;;;;16.67;9.27;;;3.10;99.90;;;;;;2071461;28;20223;-67
2023/04/21 01:00:03;;;;;;;15.57;8.63;;;3.10;99.90;;;;;;2069731;28;20641;-67
2023/04/21 01:01:04;;;;;;;15.32;8.30;;;3.10;99.90;;;;;;2055572;28;20191;-67
2023/04/21 01:02:06;;;;;;;16.07;8.67;;;3.10;99.90;;;;;;2055390;28;20231;-66
2023/04/21 01:03:07;;;;;;;15.10;8.35;;;3.10;99.90;;;;;;2066787;28;20186;-68
2023/04/21 01:04:09;;;;;;;17.97;9.07;;;3.10;99.90;;;;;;2059080;28;20241;-67
2023/04/21 01:05:10;;;;;;;17.13;9.60;;;3.10;99.90;;;;;;2059082;28;20190;-67
2023/04/21 01:06:12;;;;;;;16.70;10.23;;;3.10;99.90;;;;;;2062930;28;20224;-67
2023/04/21 01:07:13;;;;;;;15.85;8.90;;;3.10;99.90;;;;;;2062883;28;20597;-67
2023/04/21 01:08:14;;;;;;;15.20;8.63;;;3.20;99.90;;;;;;2070582;28;20228;-67
2023/04/21 01:09:15;;;;;;;18.77;10.43;;;3.20;99.90;;;;;;2071669;28;20281;-67
2023/04/21 01:10:16;;;;;;;15.77;8.53;;;3.20;99.90;;;;;;2071389;28;20228;-67
2023/04/21 01:11:16;;;;;;;16.53;9.60;;;3.20;99.90;;;;;;2071715;28;20204;-67
2023/04/21 01:12:20;;;;;;;14.03;8.47;;;3.10;99.90;;;;;;2062721;28;20181;-66
2023/04/21 01:13:23;;;;;;;14.40;8.30;;;3.10;99.90;;;;;;2054797;28;20194;-67
2023/04/21 01:14:25;;;;;;;16.02;9.52;;;3.10;99.90;;;;;;2058937;28;20242;-68
2023/04/21 01:15:29;;;;;;;18.45;8.80;;;3.10;99.90;;;;;;2058526;28;21069;-67
2023/04/21 01:16:33;;;;;;;14.43;7.45;;;3.10;99.90;;;;;;2068522;28;20233;-67
2023/04/21 01:17:37;;;;;;;15.15;9.15;;;3.00;99.90;;;;;;2070895;28;20258;-68
2023/04/21 01:18:38;;;;;;;13.52;7.72;;;3.00;99.90;;;;;;2070975;28;20665;-67
2023/04/21 01:19:43;;;;;;;15.83;8.83;;;3.00;99.90;;;;;;2070967;28;20319;-68
2023/04/21 01:20:44;;;;;;;18.23;9.55;;;3.00;99.90;;;;;;2070986;28;20241;-67
2023/04/21 01:21:48;;;;;;;15.43;8.32;;;3.10;99.90;;;;;;2071013;28;20705;-67
2023/04/21 01:22:50;;;;;;;16.48;8.48;;;3.10;99.90;;;;;;2071113;28;20228;-67
2023/04/21 01:23:51;;;;;;;15.45;8.93;;;3.10;99.90;;;;;;2070715;28;20740;-67
2023/04/21 01:24:52;;;;;;;18.63;10.13;;;3.00;99.90;;;;;;2063644;28;20364;-67
2023/04/21 01:25:52;;;;;;;16.23;8.15;;;3.10;99.90;;;;;;2071762;28;20228;-67
2023/04/21 01:26:53;;;;;;;15.90;8.43;;;3.10;99.90;;;;;;2063332;28;20241;-67
2023/04/21 01:27:54;;;;;;;12.80;8.30;;;3.20;99.90;;;;;;2063489;28;20307;-67
2023/04/21 01:28:56;;;;;;;15.30;8.27;;;3.30;99.90;;;;;;2072407;28;20375;-68
2023/04/21 01:29:57;;;;;;;19.20;9.98;;;3.40;99.90;;;;;;2072590;28;20225;-67
2023/04/21 01:30:58;;;;;;;20.10;10.23;;;3.40;99.90;;;;;;2072096;28;20228;-68
2023/04/21 01:32:08;;;;;;;16.07;9.37;;;3.50;99.90;;;;;;2072483;28;20274;-67
2023/04/21 01:33:09;;;;;;;18.27;9.43;;;3.50;99.90;;;;;;2070508;28;20225;-68
2023/04/21 01:34:10;;;;;;;16.67;7.93;;;3.40;99.90;;;;;;2062365;28;20263;-68
2023/04/21 01:35:10;;;;;;;16.03;8.00;;;3.50;99.90;;;;;;2062335;28;20240;-67
2023/04/21 01:36:11;;;;;;;17.07;9.47;;;3.50;99.90;;;;;;2063222;28;20516;-68
2023/04/21 01:37:16;;;;;;;12.77;8.13;;;3.60;99.90;;;;;;2059545;28;20625;-67
2023/04/21 01:38:17;;;;;;;15.40;8.75;;;3.70;99.90;;;;;;2071163;28;20182;-67
2023/04/21 01:39:18;;;;;;;16.88;9.43;;;3.70;99.90;;;;;;2066998;28;20224;-68
2023/04/21 01:40:19;;;;;;;15.90;8.60;;;3.70;99.90;;;;;;2057904;28;20197;-69
2023/04/21 01:41:20;;;;;;;13.57;7.33;;;3.70;99.90;;;;;;2061213;28;20200;-67
2023/04/21 01:42:24;;;;;;;19.67;9.03;;;3.80;99.90;;;;;;2070377;28;20731;-67
2023/04/21 01:43:26;;;;;;;14.95;8.13;;;3.70;99.90;;;;;;2078620;28;20235;-67
2023/04/21 01:44:27;;;;;;;16.95;9.10;;;3.70;99.90;;;;;;2079194;28;20713;-67
2023/04/21 01:45:27;;;;;;;19.20;9.97;;;3.70;99.90;;;;;;2078923;28;20227;-69
2023/04/21 01:46:28;;;;;;;18.03;8.57;;;3.70;99.90;;;;;;2078813;28;20232;-67
2023/04/21 01:47:30;;;;;;;15.00;8.30;;;3.70;99.90;;;;;;2069786;28;20275;-68
2023/04/21 01:48:31;;;;;;;16.15;8.65;;;3.60;99.90;;;;;;2070732;28;20294;-67
2023/04/21 01:49:32;;;;;;;16.37;9.23;;;3.60;99.90;;;;;;2061993;28;20709;-67
2023/04/21 01:50:33;;;;;;;17.20;8.40;;;3.60;99.90;;;;;;2055047;28;20223;-67
2023/04/21 01:51:34;;;;;;;15.97;8.30;;;3.60;99.90;;;;;;2062654;28;20249;-67
2023/04/21 01:52:34;;;;;;;19.45;9.07;;;3.60;99.90;;;;;;2071260;28;20221;-67
2023/04/21 01:53:36;;;;;;;17.03;8.77;;;3.50;99.90;;;;;;2071402;28;20228;-67
2023/04/21 01:54:36;;;;;;;16.98;8.90;;;3.40;99.90;;;;;;2070616;28;20221;-68
2023/04/21 01:55:37;;;;;;;17.37;8.50;;;3.40;99.90;;;;;;2070284;28;20256;-68
2023/04/21 01:56:38;;;;;;;15.93;8.47;;;3.30;99.90;;;;;;2066727;28;20240;-67
2023/04/21 01:57:38;;;;;;;20.97;9.37;;;3.30;99.90;;;;;;2062362;28;20307;-67
2023/04/21 01:58:39;;;;;;;14.37;7.43;;;3.30;99.90;;;;;;2070477;28;20231;-67
2023/04/21 01:59:40;;;;;;;16.53;8.43;;;3.30;99.90;;;;;;2071258;28;20348;-67
2023/04/21 02:00:41;;;;;;;16.70;8.50;;;3.20;99.90;;;;;;2062296;28;20643;-67
2023/04/21 02:01:42;;;;;;;18.00;8.87;;;3.30;99.90;;;;;;2062954;28;20236;-67
2023/04/21 02:02:42;;;;;;;15.48;8.02;;;3.30;99.90;;;;;;2070808;28;20287;-67
2023/04/21 02:03:44;;;;;;;19.67;8.93;;;3.30;99.90;;;;;;2071058;28;20233;-68
2023/04/21 02:04:45;;;;;;;20.63;9.48;;;3.30;99.90;;;;;;2071182;28;20272;-67
2023/04/21 02:05:46;;;;;;;20.87;8.77;;;3.20;99.90;;;;;;2070616;28;20729;-67
2023/04/21 02:06:47;;;;;;;19.92;8.57;;;3.20;99.90;;;;;;2070527;28;20609;-67
2023/04/21 02:07:47;;;;;;;16.80;8.60;;;3.20;99.90;;;;;;2070404;28;20346;-67
2023/04/21 02:08:49;;;;;;;26.73;10.13;;;3.10;99.90;;;;;;2062576;28;20232;-67
2023/04/21 02:09:50;;;;;;;74.82;14.68;;;3.10;99.90;;;;;;2070633;28;20224;-67
2023/04/21 02:10:50;;;;;;;28.08;9.95;;;3.00;99.90;;;;;;2071290;28;20579;-67
2023/04/21 02:11:51;;;;;;;19.67;9.37;;;3.00;99.90;;;;;;2070383;28;20294;-67
2023/04/21 02:12:52;;;;;;;22.73;10.10;;;3.00;99.90;;;;;;2070563;28;20232;-68
2023/04/21 02:13:54;;;;;;;22.13;9.27;;;3.00;99.90;;;;;;2071402;28;20243;-67
2023/04/21 02:14:56;;;;;;;18.65;8.10;;;3.00;99.90;;;;;;2071150;28;20255;-67
2023/04/21 02:15:57;;;;;;;32.33;10.00;;;3.00;99.90;;;;;;2066647;28;20722;-67
2023/04/21 02:16:57;;;;;;;19.80;9.20;;;3.00;99.90;;;;;;2066708;28;20256;-67
2023/04/21 02:17:59;;;;;;;23.20;9.77;;;3.00;99.90;;;;;;2070458;28;20749;-68
2023/04/21 02:19:00;;;;;;;20.17;9.68;;;3.00;99.90;;;;;;2062705;28;20359;-69
2023/04/21 02:20:01;;;;;;;26.77;11.53;;;2.90;99.90;;;;;;2061557;28;20303;-70
2023/04/21 02:21:02;;;;;;;23.27;9.85;;;2.90;99.90;;;;;;2054434;28;20261;-68
2023/04/21 02:22:03;;;;;;;20.53;9.03;;;2.90;99.90;;;;;;2062611;28;20206;-67
2023/04/21 02:23:04;;;;;;;23.53;10.03;;;3.00;99.90;;;;;;2071093;28;20185;-67
2023/04/21 02:24:05;;;;;;;20.03;8.37;;;3.00;99.90;;;;;;2071340;28;20269;-67
2023/04/21 02:25:07;;;;;;;17.27;8.87;;;3.00;99.90;;;;;;2066763;28;20222;-67
2023/04/21 02:26:08;;;;;;;19.98;9.30;;;3.10;99.90;;;;;;2062643;28;20193;-68
2023/04/21 02:27:09;;;;;;;22.20;9.37;;;3.00;99.90;;;;;;2070215;28;20678;-67
2023/04/21 02:28:10;;;;;;;23.52;8.98;;;3.00;99.90;;;;;;2062482;28;20188;-67
2023/04/21 02:29:11;;;;;;;21.10;9.37;;;3.00;99.90;;;;;;2070398;28;20738;-67
2023/04/21 02:30:11;;;;;;;27.17;10.07;;;2.90;99.90;;;;;;2059845;28;20251;-67
2023/04/21 02:31:12;;;;;;;16.37;7.90;;;2.90;99.90;;;;;;2067143;28;20196;-67
2023/04/21 02:32:13;;;;;;;21.98;9.02;;;2.90;99.90;;;;;;2067686;28;20200;-67
2023/04/21 02:33:14;;;;;;;17.93;8.60;;;2.90;99.90;;;;;;2070934;28;20189;-67
2023/04/21 02:34:15;;;;;;;34.93;10.73;;;2.90;99.90;;;;;;2071231;28;20228;-69
2023/04/21 02:35:15;;;;;;;24.30;9.23;;;3.00;99.90;;;;;;2071407;28;20279;-68
2023/04/21 02:36:16;;;;;;;27.43;10.67;;;3.00;99.90;;;;;;2071283;28;20200;-67
2023/04/21 02:37:17;;;;;;;22.23;8.83;;;3.00;99.90;;;;;;2070680;28;20196;-69
2023/04/21 02:38:19;;;;;;;30.17;10.37;;;3.10;99.90;;;;;;2062375;28;20196;-67
2023/04/21 02:39:19;;;;;;;45.20;12.77;;;3.00;99.90;;;;;;2070915;28;20350;-67
2023/04/21 02:40:21;;;;;;;60.40;15.38;;;3.00;99.90;;;;;;2072653;28;21674;-69
2023/04/21 02:41:22;;;;;;;31.97;11.00;;;3.10;99.90;;;;;;2063653;28;20746;-67
2023/04/21 02:42:23;;;;;;;30.38;10.52;;;3.10;99.90;;;;;;2063942;28;20228;-67
2023/04/21 02:43:24;;;;;;;38.08;11.95;;;3.00;99.90;;;;;;2072589;28;20941;-67
2023/04/21 02:44:25;;;;;;;32.03;11.35;;;3.00;99.90;;;;;;2072666;28;20232;-67
2023/04/21 02:45:25;;;;;;;26.00;9.57;;;2.90;99.90;;;;;;2060513;28;20241;-67
2023/04/21 02:46:26;;;;;;;24.63;9.33;;;2.90;99.90;;;;;;2052387;28;20290;-67
2023/04/21 02:47:27;;;;;;;22.10;9.23;;;2.80;99.90;;;;;;2055700;28;20303;-67
2023/04/21 02:48:27;;;;;;;49.37;12.63;;;2.80;99.90;;;;;;2059762;28;20230;-69
2023/04/21 02:49:28;;;;;;;33.17;11.60;;;2.80;99.90;;;;;;2058794;28;20234;-67
2023/04/21 02:50:29;;;;;;;49.57;12.40;;;2.70;99.90;;;;;;2060262;28;20233;-67
2023/04/21 02:51:31;;;;;;;40.83;10.55;;;2.50;99.90;;;;;;2071833;28;20306;-67
2023/04/21 02:52:36;;;;;;;72.75;13.40;;;2.40;99.90;;;;;;2072425;28;20228;-68
2023/04/21 02:53:37;;;;;;;66.43;12.00;;;2.40;99.90;;;;;;2069343;28;21055;-67
2023/04/21 02:54:38;;;;;;;97.10;13.73;;;2.40;99.90;;;;;;2072317;28;20242;-67
2023/04/21 02:55:39;;;;;;;90.87;14.77;;;2.40;99.90;;;;;;2071983;28;20656;-68
2023/04/21 02:56:40;;;;;;;40.50;11.70;;;2.50;99.90;;;;;;2060916;28;20257;-67
2023/04/21 02:57:41;;;;;;;69.53;14.80;;;2.50;99.90;;;;;;2062907;28;20239;-68
2023/04/21 02:58:42;;;;;;;30.07;10.63;;;2.50;99.90;;;;;;2071597;28;20306;-68
2023/04/21 02:59:43;;;;;;;143.85;13.75;;;2.40;99.90;;;;;;2075358;28;20763;-67
2023/04/21 03:00:43;;;;;;;115.57;15.53;;;2.40;99.90;;;;;;2071650;28;20216;-67
2023/04/21 03:01:46;;;;;;;59.57;11.40;;;2.40;99.90;;;;;;2072023;28;20605;-67
2023/04/21 03:02:47;;;;;;;44.67;10.70;;;2.40;99.90;;;;;;2063707;28;20692;-67
2023/04/21 03:03:48;;;;;;;296.57;27.17;;;2.40;99.90;;;;;;2052361;28;20314;-67
2023/04/21 03:04:48;;;;;;;511.17;43.80;;;2.40;99.90;;;;;;2067865;28;20263;-67
2023/04/21 03:06:00;;;;;;;192.70;19.63;;;2.30;99.90;;;;;;2063667;28;20321;-69
2023/04/21 03:07:00;;;;;;;223.95;24.38;;;2.20;99.90;;;;;;2063117;28;20320;-67
2023/04/21 03:08:01;;;;;;;213.13;17.93;;;2.20;99.90;;;;;;2062952;28;20216;-69
2023/04/21 03:09:03;;;;;;;116.55;15.07;;;2.10;99.90;;;;;;2051866;28;20289;-67
2023/04/21 03:10:07;;;;;;;145.10;17.48;;;2.10;99.90;;;;;;2052101;28;20201;-69
2023/04/21 03:11:08;;;;;;;145.82;18.10;;;2.10;99.90;;;;;;2059355;28;20182;-67
2023/04/21 03:12:09;;;;;;;109.50;16.07;;;2.20;99.90;;;;;;2061365;28;20272;-67
2023/04/21 03:13:10;;;;;;;270.90;18.92;;;2.30;99.90;;;;;;2064278;28;20892;-67
2023/04/21 03:14:11;;;;;;;191.43;19.37;;;2.30;99.90;;;;;;2063075;28;20199;-67
2023/04/21 03:15:13;;;;;;;153.23;17.07;;;2.30;99.90;;;;;;2063301;28;20212;-68
2023/04/21 03:16:13;;;;;;;126.68;20.02;;;2.40;99.90;;;;;;2056091;28;20194;-69
2023/04/21 03:17:14;;;;;;;156.18;19.98;;;2.40;99.90;;;;;;2063486;28;20180;-69
2023/04/21 03:18:16;;;;;;;193.77;16.27;;;2.50;99.90;;;;;;2057810;28;20265;-67
2023/04/21 03:19:16;;;;;;;345.70;24.23;;;2.50;99.90;;;;;;2059773;28;20210;-67
2023/04/21 03:20:18;;;;;;;219.03;21.70;;;2.40;99.90;;;;;;2054096;28;20741;-67
2023/04/21 03:21:19;;;;;;;163.85;18.50;;;2.40;99.90;;;;;;2068139;28;20208;-67
2023/04/21 03:22:20;;;;;;;217.33;17.50;;;2.30;99.90;;;;;;2072051;28;20201;-67
2023/04/21 03:23:21;;;;;;;203.07;21.57;;;2.30;99.90;;;;;;2071501;28;20258;-68
2023/04/21 03:24:21;;;;;;;500.53;27.17;;;2.30;99.90;;;;;;2072298;28;20225;-69
2023/04/21 03:25:22;;;;;;;365.07;31.77;;;2.20;99.90;;;;;;2072247;28;20574;-67
2023/04/21 03:26:24;;;;;;;346.13;25.30;;;2.20;99.90;;;;;;2055564;28;20274;-67
2023/04/21 03:27:25;;;;;;;394.00;31.00;;;2.10;99.90;;;;;;2055318;28;20240;-69
2023/04/21 03:28:28;;;;;;;274.00;23.02;;;2.10;99.90;;;;;;2071905;28;20238;-67
2023/04/21 03:29:29;;;;;;;113.55;11.95;;;2.00;99.90;;;;;;2063448;28;20338;-68
2023/04/21 03:30:30;;;;;;;126.25;12.13;;;2.10;99.90;;;;;;2063676;28;20264;-67
2023/04/21 03:31:31;;;;;;;129.97;12.07;;;2.00;99.90;;;;;;2059691;28;20286;-67
2023/04/21 03:32:31;;;;;;;238.33;17.67;;;2.00;99.90;;;;;;2051580;28;20225;-67
2023/04/21 03:33:32;;;;;;;203.67;16.87;;;2.10;99.90;;;;;;2063501;28;20229;-67
2023/04/21 03:34:33;;;;;;;272.23;20.63;;;2.10;99.90;;;;;;2071474;28;20339;-67
2023/04/21 03:35:34;;;;;;;221.17;23.57;;;2.20;99.90;;;;;;2071652;28;20715;-67
2023/04/21 03:36:34;;;;;;;108.78;13.65;;;2.20;99.90;;;;;;2072209;28;20689;-67
2023/04/21 03:37:35;;;;;;;150.47;19.10;;;2.30;99.90;;;;;;2062991;28;20231;-67
2023/04/21 03:38:36;;;;;;;156.23;15.83;;;2.40;99.90;;;;;;2071625;28;20215;-67
2023/04/21 03:39:36;;;;;;;141.83;13.60;;;2.50;99.90;;;;;;2068095;28;20224;-67
2023/04/21 03:40:38;;;;;;;138.37;12.33;;;2.50;99.90;;;;;;2067802;28;20231;-67
2023/04/21 03:41:39;;;;;;;203.10;19.17;;;2.60;99.90;;;;;;2071501;28;20320;-67
2023/04/21 03:42:41;;;;;;;283.77;24.10;;;2.70;99.90;;;;;;2071706;28;20670;-69
2023/04/21 03:43:42;;;;;;;91.47;12.80;;;2.70;99.90;;;;;;2071725;28;20243;-67
2023/04/21 03:44:43;;;;;;;88.63;10.47;;;2.60;99.90;;;;;;2071613;28;20228;-67
2023/04/21 03:45:43;;;;;;;115.87;12.93;;;2.70;99.90;;;;;;2071070;28;20718;-67
2023/04/21 03:46:44;;;;;;;70.33;8.53;;;2.80;99.90;;;;;;2063086;28;20224;-67
2023/04/21 03:47:45;;;;;;;208.07;20.48;;;2.80;99.90;;;;;;2071008;28;20350;-67
2023/04/21 03:48:48;;;;;;;106.00;13.87;;;2.80;99.90;;;;;;2071904;28;20607;-67
2023/04/21 03:49:48;;;;;;;135.48;14.13;;;2.80;99.90;;;;;;2072317;28;20279;-67
2023/04/21 03:50:49;;;;;;;72.60;8.53;;;2.70;99.90;;;;;;2071437;28;20297;-67
2023/04/21 03:51:50;;;;;;;134.60;12.43;;;2.70;99.90;;;;;;2071601;28;20322;-66
2023/04/21 03:52:50;;;;;;;124.20;14.03;;;2.60;99.90;;;;;;2071042;28;20221;-67
2023/04/21 03:53:52;;;;;;;23.83;6.68;;;2.60;99.90;;;;;;2071267;28;20239;-67
2023/04/21 03:54:52;;;;;;;29.27;7.40;;;2.40;99.90;;;;;;2068376;28;20237;-67
2023/04/21 03:55:54;;;;;;;23.33;6.80;;;2.40;99.90;;;;;;2062846;28;20473;-68
2023/04/21 03:56:55;;;;;;;19.08;7.05;;;2.30;99.90;;;;;;2071425;28;20229;-67
2023/04/21 03:57:55;;;;;;;8.80;5.17;;;2.30;99.90;;;;;;2071236;28;20290;-67
2023/04/21 03:58:56;;;;;;;9.47;5.03;;;2.20;99.90;;;;;;2054728;28;20593;-67
2023/04/21 03:59:59;;;;;;;9.18;4.78;;;2.20;99.90;;;;;;2067442;28;20261;-67
2023/04/21 04:01:00;;;;;;;12.13;5.68;;;2.20;99.90;;;;;;2075314;28;20818;-67
2023/04/21 04:02:01;;;;;;;23.42;9.48;;;2.20;99.90;;;;;;2069415;28;20782;-69
2023/04/21 04:03:06;;;;;;;14.00;6.68;;;2.20;99.90;;;;;;2071149;28;20199;-68
2023/04/21 04:04:06;;;;;;;12.95;6.30;;;2.10;99.90;;;;;;2071712;28;20755;-68
2023/04/21 04:05:08;;;;;;;10.45;6.85;;;2.10;99.90;;;;;;2071433;28;20205;-67
2023/04/21 04:06:10;;;;;;;20.08;8.98;;;2.00;99.90;;;;;;2060030;28;20619;-69
2023/04/21 04:07:10;;;;;;;12.25;6.15;;;2.00;99.90;;;;;;2067530;28;20196;-67
2023/04/21 04:08:12;;;;;;;13.70;6.53;;;2.00;99.90;;;;;;2067575;28;20269;-68
2023/04/21 04:09:13;;;;;;;197.55;16.13;;;1.90;99.90;;;;;;2071937;28;20255;-67
2023/04/21 04:10:14;;;;;;;65.50;10.23;;;1.80;99.90;;;;;;2071390;28;20247;-67
2023/04/21 04:11:15;;;;;;;61.13;12.17;;;1.90;99.90;;;;;;2070996;28;20186;-67
2023/04/21 04:12:15;;;;;;;92.57;14.70;;;1.90;99.90;;;;;;2058862;28;20219;-67
2023/04/21 04:13:17;;;;;;;217.73;23.53;;;2.00;99.90;;;;;;2067738;28;20285;-67
2023/04/21 04:14:19;;;;;;;133.75;16.38;;;2.00;99.90;;;;;;2072048;28;20183;-67
2023/04/21 04:15:20;;;;;;;200.30;17.00;;;2.00;99.90;;;;;;2072200;28;20689;-67
2023/04/21 04:16:20;;;;;;;152.77;16.87;;;1.90;99.90;;;;;;2063285;28;20228;-67
2023/04/21 04:17:21;;;;;;;274.57;24.37;;;1.90;99.90;;;;;;2046811;28;20787;-67
2023/04/21 04:18:22;;;;;;;289.23;32.00;;;1.90;99.90;;;;;;2062284;28;20231;-67
2023/04/21 04:19:22;;;;;;;216.93;24.03;;;1.90;99.90;;;;;;2071825;28;20231;-69
2023/04/21 04:20:23;;;;;;;185.43;20.77;;;1.90;99.90;;;;;;2071827;28;20329;-67
2023/04/21 04:21:24;;;;;;;137.47;18.43;;;2.00;99.90;;;;;;2063323;28;20365;-67
2023/04/21 04:22:24;;;;;;;410.87;36.67;;;2.00;99.90;;;;;;2070958;28;20227;-67
2023/04/21 04:23:25;;;;;;;373.47;38.13;;;2.00;99.90;;;;;;2071542;28;20239;-67
2023/04/21 04:24:27;;;;;;;237.10;28.90;;;2.00;99.90;;;;;;2071966;28;20300;-67
2023/04/21 04:25:27;;;;;;;290.48;31.48;;;1.90;99.90;;;;;;2071131;28;20226;-67
2023/04/21 04:26:28;;;;;;;324.00;32.13;;;1.90;99.90;;;;;;2062409;28;20230;-67
2023/04/21 04:27:29;;;;;;;194.67;22.03;;;1.90;99.90;;;;;;2059070;28;20223;-67
2023/04/21 04:28:31;;;;;;;338.30;35.80;;;1.80;99.90;;;;;;2062732;28;20228;-67
2023/04/21 04:29:32;;;;;;;212.20;26.73;;;1.80;99.90;;;;;;2062460;28;20240;-67
2023/04/21 04:30:34;;;;;;;167.00;20.83;;;1.80;99.90;;;;;;2062872;28;20598;-67
2023/04/21 04:31:34;;;;;;;311.08;30.05;;;1.80;99.90;;;;;;2054979;28;20330;-67
2023/04/21 04:32:38;;;;;;;265.43;25.47;;;1.80;99.90;;;;;;2055072;28;20227;-67
2023/04/21 04:33:43;;;;;;;119.47;14.70;;;1.80;99.90;;;;;;2071137;28;20680;-67
2023/04/21 04:34:43;;;;;;;289.02;28.73;;;1.80;99.90;;;;;;2071324;28;20225;-67
2023/04/21 04:35:45;;;;;;;272.80;28.50;;;1.80;99.90;;;;;;2071167;28;20228;-67
2023/04/21 04:36:49;;;;;;;185.23;21.13;;;1.80;99.90;;;;;;2070844;28;20227;-67
2023/04/21 04:37:49;;;;;;;70.13;11.05;;;1.80;99.90;;;;;;2071383;28;20304;-67
2023/04/21 04:38:50;;;;;;;155.77;20.83;;;1.70;99.90;;;;;;2071479;28;20875;-67
2023/04/21 04:39:54;;;;;;;55.73;12.57;;;1.80;99.90;;;;;;2072031;28;20229;-68
2023/04/21 04:40:56;;;;;;;140.55;18.23;;;1.80;99.90;;;;;;2069040;28;20222;-67
2023/04/21 04:41:57;;;;;;;244.70;27.70;;;1.70;99.90;;;;;;2058774;28;20233;-68
2023/04/21 04:42:57;;;;;;;100.70;13.97;;;1.70;99.90;;;;;;2061420;28;20218;-68
2023/04/21 04:43:58;;;;;;;53.43;10.30;;;1.70;99.90;;;;;;2070843;28;20221;-69
2023/04/21 04:45:00;;;;;;;152.30;21.60;;;1.70;99.90;;;;;;2071253;28;20217;-68
2023/04/21 04:46:02;;;;;;;32.15;8.23;;;1.70;99.90;;;;;;2058847;28;20321;-69
2023/04/21 04:47:03;;;;;;;23.67;8.52;;;1.70;99.90;;;;;;2054959;28;20210;-67
2023/04/21 04:48:05;;;;;;;57.30;12.75;;;1.70;99.90;;;;;;2054928;28;20277;-68
2023/04/21 04:49:05;;;;;;;97.43;16.40;;;1.60;99.90;;;;;;2070831;28;20218;-68
2023/04/21 04:50:07;;;;;;;65.87;12.93;;;1.60;99.90;;;;;;2071418;28;20196;-68
2023/04/21 04:51:07;;;;;;;51.15;9.88;;;1.60;99.90;;;;;;2071106;28;20289;-68
2023/04/21 04:52:08;;;;;;;72.87;9.73;;;1.60;99.90;;;;;;2070806;28;20186;-68
2023/04/21 04:53:09;;;;;;;84.80;13.03;;;1.60;99.90;;;;;;2062974;28;20229;-68
2023/04/21 04:54:09;;;;;;;32.60;10.33;;;1.60;99.90;;;;;;2071187;28;20177;-67
2023/04/21 04:55:10;;;;;;;77.03;12.33;;;1.60;99.90;;;;;;2070714;28;20220;-67
2023/04/21 04:56:12;;;;;;;116.03;19.27;;;1.60;99.90;;;;;;2062598;28;20202;-67
2023/04/21 04:57:13;;;;;;;96.85;17.27;;;1.50;99.90;;;;;;2062594;28;20226;-67
2023/04/21 04:58:13;;;;;;;59.97;11.47;;;1.40;99.90;;;;;;2071449;28;20182;-67
2023/04/21 04:59:14;;;;;;;43.03;10.10;;;1.50;99.90;;;;;;2070880;28;20233;-67
2023/04/21 05:00:17;;;;;;;92.70;14.30;;;1.50;99.90;;;;;;2070895;28;20194;-67
2023/04/21 05:01:17;;;;;;;76.20;10.73;;;1.50;99.90;;;;;;2070520;28;20566;-66
2023/04/21 05:02:18;;;;;;;147.63;22.10;;;1.50;99.90;;;;;;2070967;28;20196;-66
2023/04/21 05:03:19;;;;;;;116.77;16.87;;;1.50;99.90;;;;;;2071378;28;20224;-66
2023/04/21 05:04:20;;;;;;;111.57;15.87;;;1.50;99.90;;;;;;2070890;28;20263;-66
2023/04/21 05:05:21;;;;;;;125.33;17.40;;;1.50;99.90;;;;;;2070980;28;20222;-68
2023/04/21 05:06:25;;;;;;;30.90;9.32;;;1.50;99.90;;;;;;2062471;28;20241;-65
2023/04/21 05:07:25;;;;;;;100.88;12.15;;;1.40;99.90;;;;;;2055079;28;20254;-67
2023/04/21 05:08:26;;;;;;;42.37;9.97;;;1.40;99.90;;;;;;2059067;28;20230;-66
2023/04/21 05:09:27;;;;;;;31.53;8.77;;;1.50;99.90;;;;;;2067164;28;20230;-66
2023/04/21 05:10:27;;;;;;;23.50;8.30;;;1.50;99.90;;;;;;2071038;28;20917;-66
2023/04/21 05:11:28;;;;;;;81.50;14.87;;;1.50;99.90;;;;;;2062677;28;20233;-66
2023/04/21 05:12:31;;;;;;;61.00;10.97;;;1.50;99.90;;;;;;2070901;28;20806;-66
2023/04/21 05:13:31;;;;;;;63.85;11.60;;;1.50;99.90;;;;;;2067706;28;20257;-65
2023/04/21 05:14:32;;;;;;;79.57;10.00;;;1.50;99.90;;;;;;2070654;28;20226;-66
2023/04/21 05:15:33;;;;;;;50.37;11.40;;;1.40;99.90;;;;;;2066726;28;20243;-66